WIDD/BTH METAR and TAF weather

Enter ICAO airport designator
Station Type Date Time Source
WIDD METAR 2018/12/19 09:00 UTC NOAA

WIDD 190900Z 07005KT 9999 FEW014 30/24 Q1011


Station Type Date Time Source
WIDD Decoded METAR 2018/12/19 09:00 UTC NOAA

Station name not available
Dec 19, 2018 - 04:00 AM EST / 2018.12.19 0900 UTC
Wind: from the ENE (070 degrees) at 6 MPH (5 KT):0
Visibility: greater than 7 mile(s):0
Sky conditions: mostly clear
Temperature: 86 F (30 C)
Heat index: 95.0 F (35.0 C):1
Dew Point: 75 F (24 C)
Relative Humidity: 70%
Pressure (altimeter): 29.85 in. Hg (1011 hPa)
ob: WIDD 190900Z 07005KT 9999 FEW014 30/24 Q1011
cycle: 9

Station Type Date Time Source
WIDD TAF 2018/12/19 06:00 UTC NOAA

TAF WIDD 190500Z 1906/2006 02007KT 9000 SCT014 PROB30
TEMPO 1906/1908 5000 -TSRA FEW014CB


Example: see airport list